createdAt,value
2022-08-28T00:01:37.108Z,98117.97
2022-08-28T00:04:44.904Z,98126.91
2022-08-28T00:07:51.292Z,98114.59
2022-08-28T00:11:00.635Z,98116.31
2022-08-28T00:14:12.219Z,98126.06
2022-08-28T00:17:25.411Z,98125.75
2022-08-28T00:20:32.341Z,98125.28
2022-08-28T00:23:43.786Z,98124.94
2022-08-28T00:27:05.560Z,98128.13
2022-08-28T00:30:20.187Z,98123.47
2022-08-28T00:33:34.398Z,98128.47
2022-08-28T00:36:41.840Z,98126.53
2022-08-28T00:39:50.327Z,98123.81
2022-08-28T00:43:00.606Z,98134.19
2022-08-28T00:46:15.926Z,98126.69
2022-08-28T00:49:25.860Z,98119.31
2022-08-28T00:52:33.376Z,98113.41
2022-08-28T00:55:43.255Z,98122.38
2022-08-28T00:58:52.485Z,98119.66
2022-08-28T01:02:01.588Z,98107.66
2022-08-28T01:05:09.746Z,98112.31
2022-08-28T01:08:16.064Z,98105.25
2022-08-28T01:11:24.895Z,98107.81
2022-08-28T01:14:35.129Z,98113.94
2022-08-28T01:17:46.743Z,98117.75
2022-08-28T01:20:59.155Z,98119.56
2022-08-28T01:24:10.437Z,98116.72
2022-08-28T01:27:16.737Z,98115.91
2022-08-28T01:30:24.953Z,98113.53
2022-08-28T01:33:32.293Z,98113.06
2022-08-28T01:36:41.683Z,98115.31
2022-08-28T01:39:52.104Z,98106.69
2022-08-28T01:42:56.338Z,98109.88
2022-08-28T01:46:04.545Z,98111.00
2022-08-28T01:49:13.935Z,98103.97
2022-08-28T01:52:26.341Z,98109.06
2022-08-28T01:55:39.016Z,98109.06
2022-08-28T01:58:45.774Z,98115.31
2022-08-28T02:01:52.097Z,98116.09
2022-08-28T02:04:59.143Z,98115.78
2022-08-28T02:08:06.917Z,98114.66
2022-08-28T02:11:17.084Z,98122.94
2022-08-28T02:14:24.254Z,98123.41
2022-08-28T02:17:34.807Z,98125.31
2022-08-28T02:20:45.404Z,98122.59
2022-08-28T02:23:52.691Z,98117.84
2022-08-28T02:27:00.811Z,98116.09
2022-08-28T02:30:06.385Z,98119.16
2022-08-28T02:33:12.940Z,98113.72
2022-08-28T02:36:19.150Z,98121.72
2022-08-28T02:39:34.328Z,98118.22
2022-08-28T02:42:46.996Z,98124.78
2022-08-28T02:45:56.799Z,98124.44
2022-08-28T02:49:15.747Z,98123.31
2022-08-28T02:52:22.003Z,98121.41
2022-08-28T02:55:34.095Z,98122.19
2022-08-28T02:58:41.026Z,98127.44
2022-08-28T03:01:45.360Z,98109.22
2022-08-28T03:04:51.737Z,98116.72
2022-08-28T03:07:57.913Z,98119.09
2022-08-28T03:11:04.652Z,98116.38
2022-08-28T03:14:12.882Z,98125.00
2022-08-28T03:17:19.489Z,98118.44
2022-08-28T03:20:26.083Z,98116.50
2022-08-28T03:23:32.856Z,98115.72
2022-08-28T03:26:39.539Z,98120.81
2022-08-28T03:29:47.964Z,98123.06
2022-08-28T03:32:54.856Z,98122.75
2022-08-28T03:36:04.609Z,98116.50
2022-08-28T03:39:12.218Z,98121.28
2022-08-28T03:42:17.730Z,98128.19
2022-08-28T03:45:26.129Z,98127.38
2022-08-28T03:48:36.449Z,98130.56
2022-08-28T03:51:43.872Z,98122.88
2022-08-28T03:54:48.860Z,98119.69
2022-08-28T03:57:55.191Z,98126.25
2022-08-28T04:01:23.015Z,98134.88
2022-08-28T04:04:28.429Z,98125.13
2022-08-28T04:07:39.987Z,98125.94
2022-08-28T04:10:46.741Z,98124.66
2022-08-28T04:13:51.723Z,98137.47
2022-08-28T04:17:01.503Z,98128.50
2022-08-28T04:20:11.012Z,98133.94
2022-08-28T04:23:17.090Z,98130.44
2022-08-28T04:26:27.211Z,98135.88
2022-08-28T04:29:33.810Z,98130.09
2022-08-28T04:32:42.246Z,98132.81
2022-08-28T04:35:51.644Z,98140.97
2022-08-28T04:38:59.697Z,98140.97
2022-08-28T04:42:07.298Z,98134.41
2022-08-28T04:45:13.546Z,98136.81
2022-08-28T04:48:18.139Z,98138.53
2022-08-28T04:51:21.392Z,98145.09
2022-08-28T04:54:24.247Z,98141.59
2022-08-28T04:57:27.100Z,98146.88
2022-08-28T05:00:29.982Z,98151.66
2022-08-28T05:03:34.207Z,98145.91
2022-08-28T05:06:37.669Z,98151.50
2022-08-28T05:09:41.129Z,98156.44
2022-08-28T05:12:44.391Z,98154.84
2022-08-28T05:15:50.288Z,98147.81
2022-08-28T05:18:54.613Z,98152.13
2022-08-28T05:21:57.423Z,98149.41
2022-08-28T05:25:02.135Z,98150.38
2022-08-28T05:28:11.430Z,98154.69
2022-08-28T05:31:17.091Z,98159.78
2022-08-28T05:34:21.791Z,98163.78
2022-08-28T05:37:24.784Z,98162.50
2022-08-28T05:40:27.834Z,98164.56
2022-08-28T05:43:31.575Z,98166.16
2022-08-28T05:46:35.052Z,98168.41
2022-08-28T05:49:42.492Z,98165.84
2022-08-28T05:52:47.448Z,98168.56
2022-08-28T05:55:51.947Z,98176.72
2022-08-28T05:58:55.043Z,98168.22
2022-08-28T06:02:00.944Z,98171.88
2022-08-28T06:05:09.043Z,98169.94
2022-08-28T06:08:15.954Z,98180.03
2022-08-28T06:11:21.931Z,98179.72
2022-08-28T06:14:28.143Z,98180.97
2022-08-28T06:17:31.102Z,98185.41
2022-08-28T06:20:41.286Z,98181.09
2022-08-28T06:23:44.741Z,98181.56
2022-08-28T06:26:47.744Z,98179.09
2022-08-28T06:29:50.806Z,98185.81
2022-08-28T06:32:53.834Z,98187.09
2022-08-28T06:35:58.292Z,98192.53
2022-08-28T06:39:02.818Z,98199.81
2022-08-28T06:42:06.830Z,98195.28
2022-08-28T06:45:11.305Z,98199.63
2022-08-28T06:48:17.282Z,98208.38
2022-08-28T06:51:24.987Z,98211.56
2022-08-28T06:54:30.910Z,98204.97
2022-08-28T06:57:33.919Z,98212.50
2022-08-28T07:00:38.420Z,98208.63
2022-08-28T07:03:44.313Z,98206.97
2022-08-28T07:06:54.079Z,98214.81
2022-08-28T07:09:57.660Z,98219.91
2022-08-28T07:13:00.937Z,98218.91
2022-08-28T07:16:04.342Z,98226.16
2022-08-28T07:19:08.627Z,98224.91
2022-08-28T07:22:14.746Z,98225.72
2022-08-28T07:25:17.851Z,98230.94
2022-08-28T07:28:22.318Z,98232.09
2022-08-28T07:31:27.340Z,98227.41
2022-08-28T07:34:30.568Z,98231.41
2022-08-28T07:37:34.728Z,98236.84
2022-08-28T07:40:38.050Z,98230.88
2022-08-28T07:43:58.635Z,98233.91
2022-08-28T07:47:05.585Z,98240.38
2022-08-28T07:50:08.866Z,98248.31
2022-08-28T07:53:13.035Z,98251.84
2022-08-28T07:56:15.794Z,98249.28
2022-08-28T07:59:20.198Z,98258.84
2022-08-28T08:02:24.872Z,98254.78
2022-08-28T08:05:27.913Z,98246.41
2022-08-28T08:08:33.967Z,98249.47
2022-08-28T08:11:36.891Z,98257.63
2022-08-28T08:14:40.571Z,98261.16
2022-08-28T08:17:45.095Z,98258.47
2022-08-28T08:20:47.919Z,98267.72
2022-08-28T08:23:52.483Z,98269.22
2022-08-28T08:26:59.945Z,98278.44
2022-08-28T08:30:03.611Z,98278.00
2022-08-28T08:33:06.524Z,98276.50
2022-08-28T08:36:10.784Z,98281.88
2022-08-28T08:39:16.168Z,98278.56
2022-08-28T08:42:25.486Z,98280.25
2022-08-28T08:45:31.141Z,98286.84
2022-08-28T08:48:36.548Z,98289.91
2022-08-28T08:51:43.096Z,98288.75
2022-08-28T08:55:06.071Z,98284.88
2022-08-28T08:58:14.004Z,98290.25
2022-08-28T09:01:24.513Z,98289.22
2022-08-28T09:04:36.571Z,98295.25
2022-08-28T09:07:43.577Z,98295.91
2022-08-28T09:11:04.544Z,98297.03
2022-08-28T09:14:14.322Z,98300.03
2022-08-28T09:17:24.671Z,98295.47
2022-08-28T09:20:32.784Z,98298.41
2022-08-28T09:23:36.644Z,98290.75
2022-08-28T09:26:41.336Z,98290.75
2022-08-28T09:29:56.070Z,98302.38
2022-08-28T09:33:01.175Z,98290.31
2022-08-28T09:36:24.314Z,98306.84
2022-08-28T09:39:29.716Z,98295.66
2022-08-28T09:42:51.781Z,98302.38
2022-08-28T09:46:02.894Z,98299.31
2022-08-28T09:49:10.698Z,98303.50
2022-08-28T09:52:25.099Z,98303.97
2022-08-28T09:55:37.084Z,98302.69
2022-08-28T09:58:44.854Z,98299.22
2022-08-28T10:02:14.715Z,98298.28
2022-08-28T10:05:35.799Z,98304.81
2022-08-28T10:08:54.909Z,98310.81
2022-08-28T10:12:05.668Z,98305.03
2022-08-28T10:15:19.055Z,98298.75
2022-08-28T10:18:35.723Z,98310.69
2022-08-28T10:21:49.782Z,98302.78
2022-08-28T10:25:08.867Z,98301.91
2022-08-28T10:28:26.174Z,98297.94
2022-08-28T10:31:39.180Z,98306.06
2022-08-28T10:34:55.686Z,98299.88
2022-08-28T10:38:09.663Z,98305.56
2022-08-28T10:41:18.293Z,98301.47
2022-08-28T10:44:26.056Z,98299.97
2022-08-28T10:47:30.715Z,98304.94
2022-08-28T10:50:47.011Z,98301.63
2022-08-28T10:53:52.963Z,98286.41
2022-08-28T10:56:59.464Z,98287.50
2022-08-28T11:00:09.561Z,98289.09
2022-08-28T11:03:33.565Z,98291.06
2022-08-28T11:06:41.901Z,98292.72
2022-08-28T11:09:48.341Z,98293.25
2022-08-28T11:12:53.008Z,98290.44
2022-08-28T11:15:55.835Z,98299.66
2022-08-28T11:19:17.486Z,98291.53
2022-08-28T11:22:23.836Z,98299.00
2022-08-28T11:25:43.143Z,98303.06
2022-08-28T11:28:47.672Z,98294.16
2022-08-28T11:32:37.026Z,98299.38
2022-08-28T11:35:44.940Z,98295.66
2022-08-28T11:39:06.672Z,98284.69
2022-08-28T11:42:35.985Z,98287.34
2022-08-28T11:46:11.068Z,98288.81
2022-08-28T11:49:45.088Z,98293.69
2022-08-28T11:53:21.873Z,98293.03
2022-08-28T11:56:48.520Z,98289.16
2022-08-28T12:00:06.109Z,98290.06
2022-08-28T12:03:15.128Z,98293.56
2022-08-28T12:06:50.553Z,98295.25
2022-08-28T12:09:53.626Z,98285.66
2022-08-28T12:12:58.365Z,98292.53
2022-08-28T12:16:06.287Z,98293.94
2022-08-28T12:19:10.123Z,98285.59
2022-08-28T12:22:17.105Z,98283.28
2022-08-28T12:25:27.955Z,98292.91
2022-08-28T12:28:33.065Z,98279.81
2022-08-28T12:32:14.856Z,98288.94
2022-08-28T12:35:20.551Z,98283.09
2022-08-28T12:38:25.507Z,98285.44
2022-08-28T12:41:28.843Z,98284.16
2022-08-28T12:44:33.534Z,98282.19
2022-08-28T12:47:37.777Z,98280.38
2022-08-28T12:50:40.970Z,98281.50
2022-08-28T12:53:47.651Z,98274.75
2022-08-28T12:56:50.970Z,98270.53
2022-08-28T12:59:55.893Z,98268.59
2022-08-28T13:02:59.012Z,98266.31
2022-08-28T13:06:06.366Z,98260.31
2022-08-28T13:09:17.056Z,98264.25
2022-08-28T13:12:23.964Z,98254.72
2022-08-28T13:15:50.206Z,98248.69
2022-08-28T13:19:10.671Z,98255.56
2022-08-28T13:22:35.406Z,98255.88
2022-08-28T13:25:40.622Z,98260.03
2022-08-28T13:28:44.358Z,98256.53
2022-08-28T13:31:57.350Z,98252.41
2022-08-28T13:35:12.899Z,98244.59
2022-08-28T13:38:17.659Z,98252.25
2022-08-28T13:41:21.779Z,98242.19
2022-08-28T13:44:33.303Z,98239.50
2022-08-28T13:47:36.016Z,98245.00
2022-08-28T13:50:40.318Z,98249.97
2022-08-28T13:53:43.125Z,98241.72
2022-08-28T13:56:47.770Z,98234.81
2022-08-28T13:59:53.611Z,98239.19
2022-08-28T14:03:16.260Z,98231.88
2022-08-28T14:06:19.270Z,98233.22
2022-08-28T14:09:27.016Z,98226.28
2022-08-28T14:12:33.355Z,98227.13
2022-08-28T14:15:36.467Z,98222.09
2022-08-28T14:18:39.217Z,98219.47
2022-08-28T14:21:45.198Z,98223.19
2022-08-28T14:24:48.521Z,98216.47
2022-08-28T14:27:52.867Z,98218.47
2022-08-28T14:30:55.890Z,98218.91
2022-08-28T14:33:59.034Z,98212.22
2022-08-28T14:37:01.983Z,98216.16
2022-08-28T14:40:06.624Z,98207.47
2022-08-28T14:43:11.962Z,98208.25
2022-08-28T14:46:19.427Z,98204.56
2022-08-28T14:49:23.197Z,98200.53
2022-08-28T14:52:26.393Z,98207.19
2022-08-28T14:55:29.113Z,98202.38
2022-08-28T14:58:33.636Z,98202.28
2022-08-28T15:01:39.824Z,98199.16
2022-08-28T15:04:44.221Z,98198.03
2022-08-28T15:07:46.920Z,98188.59
2022-08-28T15:10:51.074Z,98192.47
2022-08-28T15:13:58.027Z,98192.31
2022-08-28T15:17:00.801Z,98194.56
2022-08-28T15:20:09.123Z,98194.50
2022-08-28T15:23:21.117Z,98191.66
2022-08-28T15:26:36.308Z,98195.88
2022-08-28T15:29:47.503Z,98202.22
2022-08-28T15:33:02.649Z,98194.78
2022-08-28T15:36:12.297Z,98191.88
2022-08-28T15:39:36.706Z,98193.34
2022-08-28T15:42:48.075Z,98194.94
2022-08-28T15:45:57.411Z,98187.75
2022-08-28T15:49:07.798Z,98182.16
2022-08-28T15:52:18.349Z,98179.94
2022-08-28T15:55:27.378Z,98180.84
2022-08-28T15:58:39.586Z,98185.69
2022-08-28T16:01:56.903Z,98181.78
2022-08-28T16:05:10.652Z,98190.41
2022-08-28T16:08:27.774Z,98190.78
2022-08-28T16:11:39.086Z,98186.34
2022-08-28T16:14:55.280Z,98189.41
2022-08-28T16:18:17.808Z,98188.97
2022-08-28T16:21:30.422Z,98194.75
2022-08-28T16:24:38.939Z,98188.06
2022-08-28T16:27:46.336Z,98190.41
2022-08-28T16:30:57.522Z,98184.50
2022-08-28T16:34:19.608Z,98195.78
2022-08-28T16:37:40.044Z,98188.25
2022-08-28T16:40:50.627Z,98199.50
2022-08-28T16:44:02.017Z,98193.06
2022-08-28T16:47:09.444Z,98195.56
2022-08-28T16:50:32.794Z,98191.56
2022-08-28T16:53:48.383Z,98198.53
2022-08-28T16:56:59.610Z,98189.75
2022-08-28T17:00:09.365Z,98202.16
2022-08-28T17:03:24.395Z,98192.22
2022-08-28T17:06:42.418Z,98202.28
2022-08-28T17:09:54.717Z,98202.94
2022-08-28T17:13:02.204Z,98195.41
2022-08-28T17:16:09.364Z,98198.06
2022-08-28T17:19:16.467Z,98197.53
2022-08-28T17:22:33.320Z,98197.78
2022-08-28T17:25:39.912Z,98205.88
2022-08-28T17:28:49.520Z,98204.50
2022-08-28T17:31:57.425Z,98205.91
2022-08-28T17:35:04.992Z,98208.88
2022-08-28T17:38:27.569Z,98206.78
2022-08-28T17:41:35.887Z,98211.63
2022-08-28T17:44:43.690Z,98206.50
2022-08-28T17:47:51.929Z,98223.38
2022-08-28T17:50:58.906Z,98218.00
2022-08-28T17:54:07.873Z,98225.91
2022-08-28T17:57:17.585Z,98231.94
2022-08-28T18:00:27.827Z,98231.28
2022-08-28T18:03:37.724Z,98228.66
2022-08-28T18:06:55.430Z,98225.09
2022-08-28T18:10:04.215Z,98231.38
2022-08-28T18:13:10.992Z,98237.63
2022-08-28T18:16:19.690Z,98238.91
2022-08-28T18:19:26.213Z,98245.91
2022-08-28T18:22:33.000Z,98246.84
2022-08-28T18:25:50.481Z,98241.09
2022-08-28T18:28:57.322Z,98245.34
2022-08-28T18:32:04.237Z,98248.69
2022-08-28T18:35:11.377Z,98259.28
2022-08-28T18:38:23.600Z,98262.63
2022-08-28T18:41:44.215Z,98266.13
2022-08-28T18:44:51.785Z,98273.72
2022-08-28T18:48:00.123Z,98282.41
2022-08-28T18:51:09.332Z,98284.56
2022-08-28T18:54:18.897Z,98293.66
2022-08-28T18:57:33.592Z,98292.97
2022-08-28T19:00:45.343Z,98293.56
2022-08-28T19:03:51.812Z,98304.78
2022-08-28T19:07:00.896Z,98304.22
2022-08-28T19:10:32.686Z,98311.00
2022-08-28T19:13:45.626Z,98322.72
2022-08-28T19:16:55.581Z,98320.22
2022-08-28T19:20:05.538Z,98315.31
2022-08-28T19:23:17.687Z,98324.66
2022-08-28T19:26:29.742Z,98319.47
2022-08-28T19:29:38.341Z,98325.16
2022-08-28T19:32:47.069Z,98318.59
2022-08-28T19:35:56.122Z,98327.53
2022-08-28T19:39:03.905Z,98327.09
2022-08-28T19:42:12.838Z,98333.09
2022-08-28T19:45:24.145Z,98324.94
2022-08-28T19:48:31.289Z,98331.84
2022-08-28T19:51:39.990Z,98329.00
2022-08-28T19:54:45.979Z,98335.09
2022-08-28T19:57:53.718Z,98331.78
2022-08-28T20:01:04.308Z,98336.66
2022-08-28T20:04:14.599Z,98337.06
2022-08-28T20:07:24.138Z,98338.41
2022-08-28T20:10:35.863Z,98343.59
2022-08-28T20:13:45.946Z,98352.47
2022-08-28T20:16:56.390Z,98344.47
2022-08-28T20:20:04.538Z,98348.06
2022-08-28T20:23:11.195Z,98347.59
2022-08-28T20:26:19.559Z,98355.28
2022-08-28T20:29:26.757Z,98352.25
2022-08-28T20:32:36.242Z,98357.25
2022-08-28T20:35:49.274Z,98362.81
2022-08-28T20:38:57.503Z,98366.94
2022-08-28T20:42:07.025Z,98357.91
2022-08-28T20:45:14.230Z,98366.38
2022-08-28T20:48:29.783Z,98359.03
2022-08-28T20:51:57.373Z,98367.06
2022-08-28T20:55:05.479Z,98357.97
2022-08-28T20:58:19.317Z,98361.66
2022-08-28T21:01:32.010Z,98362.34
2022-08-28T21:04:58.115Z,98365.63
2022-08-28T21:08:20.821Z,98367.28
2022-08-28T21:11:30.980Z,98366.34
2022-08-28T21:14:39.246Z,98368.91
2022-08-28T21:17:51.040Z,98368.31
2022-08-28T21:21:05.963Z,98377.47
2022-08-28T21:24:22.554Z,98377.34
2022-08-28T21:27:43.660Z,98379.44
2022-08-28T21:30:57.072Z,98382.69
2022-08-28T21:34:18.871Z,98379.19
2022-08-28T21:38:24.613Z,98392.16
2022-08-28T21:41:47.107Z,98388.19
2022-08-28T21:45:01.661Z,98389.16
2022-08-28T21:48:10.739Z,98393.03
2022-08-28T21:51:19.050Z,98396.09
2022-08-28T21:54:28.011Z,98391.28
2022-08-28T21:57:35.268Z,98391.13
2022-08-28T22:00:41.453Z,98382.16
2022-08-28T22:03:48.124Z,98388.72
2022-08-28T22:06:54.603Z,98386.63
2022-08-28T22:10:02.817Z,98396.91
2022-08-28T22:13:09.815Z,98392.75
2022-08-28T22:16:18.892Z,98392.13
2022-08-28T22:19:29.441Z,98397.56
2022-08-28T22:22:53.146Z,98397.09
2022-08-28T22:26:16.230Z,98395.84
2022-08-28T22:29:38.167Z,98396.47
2022-08-28T22:32:48.958Z,98393.13
2022-08-28T22:35:58.813Z,98401.44
2022-08-28T22:39:16.248Z,98393.94
2022-08-28T22:42:41.499Z,98397.59
2022-08-28T22:46:03.216Z,98399.22
2022-08-28T22:49:15.577Z,98389.47
2022-08-28T22:52:32.496Z,98395.84
2022-08-28T22:55:43.547Z,98395.38
2022-08-28T22:59:04.734Z,98391.22
2022-08-28T23:05:59.638Z,98406.28
2022-08-28T23:09:09.978Z,98401.94
2022-08-28T23:12:35.018Z,98403.53
2022-08-28T23:16:00.230Z,98404.34
2022-08-28T23:19:14.938Z,98400.81
2022-08-28T23:22:33.767Z,98395.72
2022-08-28T23:33:37.672Z,98388.31
2022-08-28T23:36:52.562Z,98389.75
2022-08-28T23:40:11.602Z,98387.03
2022-08-28T23:43:24.034Z,98384.66
2022-08-28T23:46:31.939Z,98382.59
2022-08-28T23:53:04.301Z,98382.25
2022-08-28T23:56:28.239Z,98383.38
2022-08-28T23:59:38.851Z,98376.31
